createdAt,value
2018-01-02T00:01:28.848Z,91.40
2018-01-02T00:03:57.426Z,91.60
2018-01-02T00:06:25.565Z,92.00
2018-01-02T00:08:53.712Z,92.00
2018-01-02T00:11:21.842Z,91.90
2018-01-02T00:13:50.693Z,91.80
2018-01-02T00:16:19.095Z,91.80
2018-01-02T00:18:47.979Z,92.80
2018-01-02T00:21:16.858Z,92.00
2018-01-02T00:23:46.462Z,91.80
2018-01-02T00:26:15.328Z,91.80
2018-01-02T00:28:43.481Z,91.90
2018-01-02T00:31:13.185Z,92.00
2018-01-02T00:33:41.312Z,92.20
2018-01-02T00:36:09.987Z,92.30
2018-01-02T00:38:38.746Z,92.10
2018-01-02T00:41:06.868Z,92.10
2018-01-02T00:43:35.806Z,92.60
2018-01-02T00:46:04.864Z,92.70
2018-01-02T00:48:33.044Z,92.70
2018-01-02T00:51:02.622Z,93.10
2018-01-02T00:53:32.029Z,93.00
2018-01-02T00:56:00.229Z,93.40
2018-01-02T00:58:29.121Z,93.50
2018-01-02T01:00:58.180Z,93.50
2018-01-02T01:03:26.328Z,93.40
2018-01-02T01:05:54.737Z,93.30
2018-01-02T01:08:22.846Z,93.50
2018-01-02T01:10:51.883Z,93.20
2018-01-02T01:13:21.461Z,93.10
2018-01-02T01:15:49.768Z,93.20
2018-01-02T01:18:18.729Z,93.30
2018-01-02T01:20:47.526Z,93.30
2018-01-02T01:23:16.668Z,93.30
2018-01-02T01:25:44.852Z,93.40
2018-01-02T01:28:13.758Z,93.40
2018-01-02T01:30:41.956Z,93.60
2018-01-02T01:33:10.385Z,93.70
2018-01-02T01:35:39.116Z,93.70
2018-01-02T01:38:07.565Z,93.80
2018-01-02T01:40:35.700Z,93.90
2018-01-02T01:43:03.843Z,94.00
2018-01-02T01:45:31.969Z,93.90
2018-01-02T01:48:00.094Z,93.90
2018-01-02T01:50:29.552Z,94.10
2018-01-02T01:52:58.560Z,94.10
2018-01-02T01:55:26.700Z,94.20
2018-01-02T01:57:55.387Z,94.10
2018-01-02T02:00:23.516Z,94.10
2018-01-02T02:02:52.836Z,94.40
2018-01-02T02:05:21.246Z,94.30
2018-01-02T02:07:49.359Z,94.40
2018-01-02T02:10:18.275Z,94.30
2018-01-02T02:12:46.441Z,94.50
2018-01-02T02:15:15.364Z,94.60
2018-01-02T02:17:44.457Z,94.70
2018-01-02T02:20:12.684Z,94.80
2018-01-02T02:22:40.808Z,94.80
2018-01-02T02:25:08.920Z,94.60
2018-01-02T02:27:37.140Z,94.80
2018-01-02T02:30:05.689Z,95.00
2018-01-02T02:32:34.953Z,95.10
2018-01-02T02:35:03.077Z,95.10
2018-01-02T02:37:32.013Z,95.40
2018-01-02T02:40:00.549Z,95.30
2018-01-02T02:42:28.708Z,95.40
2018-01-02T02:44:56.828Z,95.70
2018-01-02T02:47:24.981Z,95.90
2018-01-02T02:49:53.173Z,95.80
2018-01-02T02:52:22.947Z,95.90
2018-01-02T02:54:51.076Z,95.90
2018-01-02T02:57:19.637Z,96.10
2018-01-02T02:59:47.788Z,96.20
2018-01-02T03:02:16.316Z,96.10
2018-01-02T03:04:44.917Z,96.30
2018-01-02T03:07:13.278Z,96.30
2018-01-02T03:09:42.295Z,96.30
2018-01-02T03:12:10.529Z,96.30
2018-01-02T03:14:38.929Z,96.30
2018-01-02T03:17:07.056Z,96.30
2018-01-02T03:19:35.380Z,96.40
2018-01-02T03:22:04.523Z,96.50
2018-01-02T03:24:33.644Z,96.60
2018-01-02T03:27:02.444Z,96.50
2018-01-02T03:29:31.325Z,96.60
2018-01-02T03:31:59.739Z,96.80
2018-01-02T03:34:28.104Z,96.90
2018-01-02T03:36:56.288Z,96.90
2018-01-02T03:39:24.656Z,97.00
2018-01-02T03:41:53.146Z,97.10
2018-01-02T03:44:21.636Z,97.10
2018-01-02T03:46:50.180Z,97.20
2018-01-02T03:49:18.316Z,97.30
2018-01-02T03:51:46.665Z,97.30
2018-01-02T03:54:15.678Z,97.30
2018-01-02T03:56:44.550Z,97.50
2018-01-02T03:59:12.686Z,97.40
2018-01-02T04:01:41.582Z,97.40
2018-01-02T04:04:09.748Z,97.30
2018-01-02T04:06:39.758Z,97.60
2018-01-02T04:09:07.889Z,97.50
2018-01-02T04:11:36.313Z,97.70
2018-01-02T04:14:05.371Z,97.60
2018-01-02T04:16:33.557Z,97.80
2018-01-02T04:19:01.790Z,97.90
2018-01-02T04:21:31.380Z,98.10
2018-01-02T04:24:00.468Z,98.20
2018-01-02T04:26:29.622Z,98.30
2018-01-02T04:28:58.305Z,98.30
2018-01-02T04:31:26.448Z,98.40
2018-01-02T04:33:54.652Z,98.30
2018-01-02T04:36:22.852Z,98.20
2018-01-02T04:38:51.029Z,98.40
2018-01-02T04:41:19.158Z,98.50
2018-01-02T04:43:48.795Z,98.60
2018-01-02T04:46:17.689Z,98.70
2018-01-02T04:48:45.786Z,98.60
2018-01-02T04:51:13.904Z,98.70
2018-01-02T04:53:42.070Z,98.60
2018-01-02T04:56:10.237Z,98.50
2018-01-02T04:58:38.369Z,98.60
2018-01-02T05:01:07.388Z,98.70
2018-01-02T05:03:36.469Z,98.80
2018-01-02T05:06:05.355Z,98.90
2018-01-02T05:08:35.616Z,98.80
2018-01-02T05:11:04.090Z,98.90
2018-01-02T05:13:32.263Z,99.00
2018-01-02T05:16:00.424Z,98.80
2018-01-02T05:18:29.659Z,99.40
2018-01-02T05:20:58.825Z,98.60
2018-01-02T05:23:27.088Z,99.40
2018-01-02T05:25:55.227Z,98.50
2018-01-02T05:28:23.336Z,98.50
2018-01-02T05:30:53.053Z,98.70
2018-01-02T05:33:21.448Z,98.60
2018-01-02T05:35:50.296Z,98.70
2018-01-02T05:38:18.530Z,98.80
2018-01-02T05:40:46.644Z,99.10
2018-01-02T05:43:16.422Z,99.50
2018-01-02T05:45:45.301Z,99.50
2018-01-02T05:48:13.504Z,99.60
2018-01-02T05:50:41.689Z,99.60
2018-01-02T05:53:09.914Z,99.90
2018-01-02T05:55:38.717Z,99.90
2018-01-02T05:58:07.801Z,99.90
2018-01-02T06:00:35.966Z,99.90
2018-01-02T06:03:04.661Z,99.90
2018-01-02T06:05:33.925Z,99.90
2018-01-02T06:08:02.054Z,99.90
2018-01-02T06:10:30.612Z,99.90
2018-01-02T06:12:58.748Z,99.90
2018-01-02T06:15:26.900Z,99.90
2018-01-02T06:17:56.185Z,99.90
2018-01-02T06:20:24.313Z,99.90
2018-01-02T06:22:53.356Z,99.90
2018-01-02T06:25:21.851Z,99.90
2018-01-02T06:40:47.396Z,99.90
2018-01-02T06:43:15.697Z,99.90
2018-01-02T06:45:43.920Z,99.90
2018-01-02T06:48:12.084Z,99.90
2018-01-02T06:50:40.828Z,99.90
2018-01-02T06:53:09.364Z,99.90
2018-01-02T06:55:38.005Z,99.90
2018-01-02T06:58:06.141Z,99.90
2018-01-02T07:00:35.060Z,99.90
2018-01-02T07:03:04.273Z,99.90
2018-01-02T07:05:33.025Z,99.90
2018-01-02T07:08:01.598Z,99.90
2018-01-02T07:10:30.191Z,99.90
2018-01-02T07:12:59.041Z,99.90
2018-01-02T07:15:27.241Z,99.90
2018-01-02T07:17:55.436Z,99.90
2018-01-02T07:20:24.304Z,99.90
2018-01-02T07:22:52.465Z,99.90
2018-01-02T07:25:20.660Z,99.90
2018-01-02T07:27:48.944Z,99.90
2018-01-02T07:30:17.808Z,99.90
2018-01-02T07:32:46.245Z,99.90
2018-01-02T07:35:14.424Z,99.90
2018-01-02T07:37:42.603Z,99.90
2018-01-02T07:40:10.744Z,99.90
2018-01-02T07:42:39.410Z,99.90
2018-01-02T07:45:10.080Z,99.90
2018-01-02T07:47:38.257Z,99.90
2018-01-02T07:50:06.676Z,99.90
2018-01-02T07:52:35.080Z,99.90
2018-01-02T07:55:03.900Z,99.90
2018-01-02T07:57:32.045Z,99.90
2018-01-02T08:00:01.865Z,99.90
2018-01-02T08:02:30.010Z,99.90
2018-01-02T08:04:58.921Z,99.90
2018-01-02T08:07:27.620Z,99.90
2018-01-02T08:09:55.772Z,99.90
2018-01-02T08:12:23.982Z,99.90
2018-01-02T08:14:52.933Z,99.90
2018-01-02T08:17:21.979Z,99.90
2018-01-02T08:19:50.157Z,99.90
2018-01-02T08:22:18.384Z,99.90
2018-01-02T08:24:46.684Z,99.90
2018-01-02T08:27:15.692Z,99.90
2018-01-02T08:29:44.106Z,99.90
2018-01-02T08:32:13.227Z,99.90
2018-01-02T08:34:41.800Z,99.90
2018-01-02T08:37:09.945Z,99.90
2018-01-02T08:39:38.258Z,99.90
2018-01-02T08:42:06.835Z,99.90
2018-01-02T08:44:34.976Z,99.90
2018-01-02T08:47:03.145Z,99.90
2018-01-02T08:49:31.296Z,99.90
2018-01-02T08:51:59.795Z,99.90
2018-01-02T08:54:27.941Z,99.90
2018-01-02T08:56:56.813Z,99.90
2018-01-02T08:59:25.100Z,99.90
2018-01-02T09:01:53.853Z,99.90
2018-01-02T09:04:22.574Z,99.90
2018-01-02T09:06:52.258Z,99.90
2018-01-02T09:09:20.403Z,99.90
2018-01-02T09:11:48.924Z,99.90
2018-01-02T09:14:17.312Z,99.90
2018-01-02T09:16:45.508Z,99.90
2018-01-02T09:19:13.773Z,99.90
2018-01-02T09:21:42.362Z,99.80
2018-01-02T09:24:10.980Z,99.30
2018-01-02T09:26:39.138Z,99.30
2018-01-02T09:29:07.321Z,99.10
2018-01-02T09:31:36.880Z,98.60
2018-01-02T09:34:05.030Z,98.60
2018-01-02T09:36:33.193Z,98.60
2018-01-02T09:39:01.313Z,98.40
2018-01-02T09:41:29.926Z,98.20
2018-01-02T09:43:59.009Z,97.40
2018-01-02T09:46:27.152Z,97.30
2018-01-02T09:48:55.737Z,97.10
2018-01-02T09:51:24.055Z,96.90
2018-01-02T09:53:52.180Z,96.90
2018-01-02T09:56:20.312Z,96.90
2018-01-02T09:58:48.441Z,96.80
2018-01-02T10:01:16.600Z,96.40
2018-01-02T10:03:46.219Z,96.50
2018-01-02T10:06:14.514Z,96.40
2018-01-02T10:08:42.660Z,96.50
2018-01-02T10:11:11.103Z,96.50
2018-01-02T10:13:39.697Z,96.60
2018-01-02T10:16:07.778Z,97.40
2018-01-02T10:18:36.219Z,96.40
2018-01-02T10:21:05.839Z,95.80
2018-01-02T10:23:34.720Z,95.70
2018-01-02T10:26:02.944Z,95.70
2018-01-02T10:28:31.098Z,95.60
2018-01-02T10:30:59.594Z,95.10
2018-01-02T10:33:27.719Z,95.10
2018-01-02T10:35:55.884Z,95.10
2018-01-02T10:38:25.798Z,94.60
2018-01-02T10:40:54.194Z,94.50
2018-01-02T10:43:22.347Z,94.50
2018-01-02T10:45:51.014Z,94.40
2018-01-02T10:48:19.199Z,94.40
2018-01-02T10:50:47.337Z,94.10
2018-01-02T10:53:15.576Z,94.00
2018-01-02T10:55:43.793Z,94.00
2018-01-02T10:58:11.952Z,93.70
2018-01-02T11:00:44.644Z,93.60
2018-01-02T11:03:12.936Z,93.40
2018-01-02T11:05:41.073Z,93.30
2018-01-02T11:08:09.217Z,93.30
2018-01-02T11:10:41.936Z,93.00
2018-01-02T11:13:10.170Z,92.80
2018-01-02T11:15:38.344Z,92.80
2018-01-02T11:18:06.472Z,92.50
2018-01-02T11:20:34.885Z,92.70
2018-01-02T11:23:03.126Z,93.40
2018-01-02T11:25:31.320Z,93.00
2018-01-02T11:28:00.416Z,92.60
2018-01-02T11:30:28.552Z,92.40
2018-01-02T11:32:57.454Z,91.90
2018-01-02T11:35:25.589Z,91.80
2018-01-02T11:37:53.728Z,91.80
2018-01-02T11:40:22.721Z,91.90
2018-01-02T11:42:51.990Z,91.80
2018-01-02T11:45:20.866Z,90.70
2018-01-02T11:47:50.300Z,90.70
2018-01-02T11:50:18.470Z,90.60
2018-01-02T11:52:46.604Z,90.30
2018-01-02T11:55:15.973Z,89.50
2018-01-02T11:57:44.752Z,89.40
2018-01-02T12:00:12.897Z,89.10
2018-01-02T12:02:41.808Z,89.00
2018-01-02T12:05:09.953Z,89.00
2018-01-02T12:07:38.125Z,88.90
2018-01-02T12:10:07.060Z,88.10
2018-01-02T12:12:35.238Z,88.00
2018-01-02T12:15:03.429Z,88.10
2018-01-02T12:17:31.594Z,88.60
2018-01-02T12:20:00.464Z,88.90
2018-01-02T12:22:29.034Z,88.80
2018-01-02T12:24:58.072Z,89.00
2018-01-02T12:27:27.568Z,89.10
2018-01-02T12:29:55.697Z,89.00
2018-01-02T12:32:23.853Z,89.00
2018-01-02T12:34:51.977Z,89.30
2018-01-02T12:38:23.448Z,89.70
2018-01-02T12:40:52.505Z,90.20
2018-01-02T12:43:20.956Z,90.80
2018-01-02T12:45:49.103Z,90.90
2018-01-02T12:48:17.237Z,90.80
2018-01-02T12:50:45.411Z,91.20
2018-01-02T12:53:13.549Z,89.80
2018-01-02T12:55:41.709Z,89.00
2018-01-02T12:58:09.829Z,89.20
2018-01-02T13:00:38.193Z,89.30
2018-01-02T13:03:06.348Z,89.40
2018-01-02T13:05:35.220Z,89.90
2018-01-02T13:08:03.580Z,89.90
2018-01-02T13:10:31.852Z,90.40
2018-01-02T13:13:00.462Z,91.10
2018-01-02T13:15:29.060Z,91.60
2018-01-02T13:17:58.752Z,92.30
2018-01-02T13:20:26.908Z,92.30
2018-01-02T13:22:55.097Z,92.00
2018-01-02T13:25:23.235Z,91.80
2018-01-02T13:27:51.805Z,91.70
2018-01-02T13:30:19.956Z,91.70
2018-01-02T13:34:17.894Z,91.70
2018-01-02T13:36:46.033Z,91.70
2018-01-02T13:39:14.193Z,91.60
2018-01-02T13:41:42.314Z,92.00
2018-01-02T13:44:10.468Z,92.20
2018-01-02T13:46:39.049Z,92.10
2018-01-02T13:49:07.196Z,91.80
2018-01-02T13:51:35.406Z,91.70
2018-01-02T13:54:03.542Z,91.70
2018-01-02T13:56:32.424Z,91.30
2018-01-02T13:59:00.669Z,91.30
2018-01-02T14:01:28.804Z,91.20
2018-01-02T14:03:57.049Z,91.40
2018-01-02T14:06:25.733Z,91.30
2018-01-02T14:08:54.581Z,91.40
2018-01-02T14:11:23.063Z,91.40
2018-01-02T14:13:51.245Z,91.50
2018-01-02T14:16:19.421Z,91.60
2018-01-02T14:18:47.528Z,91.10
2018-01-02T14:21:16.417Z,90.60
2018-01-02T14:23:46.309Z,90.50
2018-01-02T14:26:14.461Z,90.40
2018-01-02T14:28:42.577Z,90.30
2018-01-02T14:31:11.334Z,90.00
2018-01-02T14:33:39.461Z,90.00
2018-01-02T14:36:08.341Z,90.10
2018-01-02T14:38:36.481Z,89.90
2018-01-02T14:41:04.652Z,90.00
2018-01-02T14:43:32.805Z,89.90
2018-01-02T14:46:02.029Z,90.00
2018-01-02T14:48:30.177Z,89.90
2018-01-02T14:50:58.355Z,89.80
2018-01-02T14:53:26.493Z,89.60
2018-01-02T14:55:55.553Z,90.00
2018-01-02T14:58:23.694Z,90.10
2018-01-02T15:00:51.808Z,90.10
2018-01-02T15:03:19.953Z,90.10
2018-01-02T15:05:48.109Z,90.40
2018-01-02T15:08:16.409Z,90.40
2018-01-02T15:10:45.236Z,90.50
2018-01-02T15:13:13.582Z,90.50
2018-01-02T15:15:41.756Z,90.60
2018-01-02T15:18:09.912Z,90.80
2018-01-02T15:20:38.098Z,90.90
2018-01-02T15:23:06.821Z,91.00
2018-01-02T15:25:35.462Z,90.90
2018-01-02T15:28:03.628Z,91.10
2018-01-02T15:30:31.824Z,91.30
2018-01-02T15:32:59.944Z,91.20
2018-01-02T15:35:29.072Z,91.00
2018-01-02T15:37:57.338Z,91.00
2018-01-02T15:40:26.321Z,91.40
2018-01-02T15:42:55.588Z,91.40
2018-01-02T15:45:23.761Z,91.40
2018-01-02T15:47:51.853Z,91.60
2018-01-02T15:50:19.961Z,91.60
2018-01-02T15:52:48.100Z,91.70
2018-01-02T15:55:16.240Z,91.60
2018-01-02T15:57:46.718Z,91.40
2018-01-02T16:00:15.009Z,91.40
2018-01-02T16:02:43.484Z,91.60
2018-01-02T16:05:12.632Z,92.00
2018-01-02T16:07:40.948Z,91.90
2018-01-02T16:10:10.141Z,92.60
2018-01-02T16:12:40.475Z,92.60
2018-01-02T16:15:08.933Z,92.90
2018-01-02T16:17:37.797Z,93.60
2018-01-02T16:20:06.008Z,93.80
2018-01-02T16:22:35.177Z,94.10
2018-01-02T16:25:03.638Z,94.00
2018-01-02T16:27:32.012Z,94.10
2018-01-02T16:30:01.466Z,93.90
2018-01-02T16:32:29.613Z,93.70
2018-01-02T16:34:58.543Z,93.60
2018-01-02T16:37:27.069Z,93.40
2018-01-02T16:39:55.344Z,93.40
2018-01-02T16:42:24.816Z,93.50
2018-01-02T16:44:54.751Z,93.70
2018-01-02T16:47:22.914Z,93.60
2018-01-02T16:49:54.162Z,93.90
2018-01-02T16:52:23.281Z,93.80
2018-01-02T16:54:52.230Z,94.00
2018-01-02T16:57:21.096Z,93.90
2018-01-02T16:59:49.896Z,93.90
2018-01-02T17:02:18.033Z,93.70
2018-01-02T17:04:46.429Z,93.50
2018-01-02T17:07:14.580Z,93.60
2018-01-02T17:22:47.252Z,91.10
2018-01-02T17:25:15.379Z,91.90
2018-01-02T17:27:45.001Z,92.50
2018-01-02T17:30:13.244Z,92.40
2018-01-02T17:32:41.528Z,92.40
2018-01-02T17:35:09.635Z,92.50
2018-01-02T17:37:37.898Z,92.70
2018-01-02T17:40:06.761Z,92.80
2018-01-02T17:42:35.189Z,92.80
2018-01-02T17:45:03.341Z,93.30
2018-01-02T17:47:31.485Z,93.60
2018-01-02T17:49:59.632Z,93.80
2018-01-02T17:52:27.772Z,93.90
2018-01-02T17:54:55.899Z,94.00
2018-01-02T17:57:24.444Z,94.30
2018-01-02T17:59:52.820Z,94.20
2018-01-02T18:02:21.498Z,94.40
2018-01-02T18:04:51.408Z,94.40
2018-01-02T18:07:20.480Z,94.30
2018-01-02T18:09:49.350Z,94.20
2018-01-02T18:12:18.006Z,94.20
2018-01-02T18:14:46.132Z,94.40
2018-01-02T18:17:15.343Z,94.00
2018-01-02T18:19:44.235Z,93.90
2018-01-02T18:22:13.117Z,93.60
2018-01-02T18:24:41.305Z,93.60
2018-01-02T18:27:09.717Z,93.40
2018-01-02T18:29:38.323Z,93.30
2018-01-02T18:32:06.454Z,93.10
2018-01-02T18:34:35.213Z,93.00
2018-01-02T18:37:03.740Z,92.90
2018-01-02T18:39:32.196Z,92.80
2018-01-02T18:42:00.937Z,92.90
2018-01-02T18:44:29.057Z,92.90
2018-01-02T18:46:57.981Z,93.20
2018-01-02T18:49:26.571Z,93.20
2018-01-02T18:51:55.054Z,93.30
2018-01-02T18:54:24.184Z,93.70
2018-01-02T18:56:53.150Z,93.80
2018-01-02T18:59:21.713Z,93.80
2018-01-02T19:01:49.943Z,94.30
2018-01-02T19:04:18.412Z,94.60
2018-01-02T19:06:46.565Z,94.90
2018-01-02T19:09:14.717Z,95.40
2018-01-02T19:11:43.818Z,95.60
2018-01-02T19:14:12.272Z,95.90
2018-01-02T19:16:40.408Z,96.20
2018-01-02T19:19:08.685Z,96.40
2018-01-02T19:21:36.861Z,96.80
2018-01-02T19:24:05.033Z,97.10
2018-01-02T19:26:33.386Z,97.20
2018-01-02T19:29:01.577Z,97.50
2018-01-02T19:31:30.054Z,97.80
2018-01-02T19:33:59.230Z,97.90
2018-01-02T19:36:27.393Z,97.90
2018-01-02T19:38:55.580Z,98.10
2018-01-02T19:41:23.740Z,98.00
2018-01-02T19:43:51.913Z,98.00
2018-01-02T19:46:20.160Z,98.10
2018-01-02T19:48:48.289Z,98.00
2018-01-02T19:51:16.448Z,98.10
2018-01-02T19:53:45.005Z,98.10
2018-01-02T19:56:13.164Z,98.10
2018-01-02T19:58:41.364Z,97.90
2018-01-02T20:01:09.529Z,97.70
2018-01-02T20:03:37.845Z,97.80
2018-01-02T20:06:05.993Z,97.70
2018-01-02T20:08:34.165Z,97.50
2018-01-02T20:11:02.601Z,97.60
2018-01-02T20:13:32.244Z,97.80
2018-01-02T20:16:00.436Z,97.80
2018-01-02T20:18:33.434Z,98.10
2018-01-02T20:21:02.015Z,98.10
2018-01-02T20:23:30.229Z,98.00
2018-01-02T20:25:59.842Z,98.00
2018-01-02T20:28:27.991Z,97.90
2018-01-02T20:30:56.821Z,97.90
2018-01-02T20:33:25.685Z,97.60
2018-01-02T20:35:53.960Z,97.50
2018-01-02T20:38:22.584Z,97.40
2018-01-02T20:40:51.456Z,97.40
2018-01-02T20:43:20.324Z,97.30
2018-01-02T20:45:48.461Z,97.30
2018-01-02T20:48:16.620Z,97.20
2018-01-02T20:50:44.748Z,97.30
2018-01-02T20:53:13.510Z,97.40
2018-01-02T20:55:41.663Z,97.70
2018-01-02T20:58:09.889Z,97.60
2018-01-02T21:00:38.012Z,97.70
2018-01-02T21:03:06.577Z,97.60
2018-01-02T21:05:34.999Z,97.50
2018-01-02T21:08:03.469Z,97.60
2018-01-02T21:10:46.411Z,97.70
2018-01-02T21:13:14.685Z,97.80
2018-01-02T21:15:43.125Z,98.00
2018-01-02T21:18:11.266Z,97.90
2018-01-02T21:20:39.416Z,97.70
2018-01-02T21:23:07.555Z,97.60
2018-01-02T21:25:35.723Z,97.60
2018-01-02T21:28:03.944Z,97.30
2018-01-02T21:30:32.141Z,97.20
2018-01-02T21:33:00.315Z,97.00
2018-01-02T21:35:28.469Z,96.90
2018-01-02T21:37:57.113Z,96.90
2018-01-02T21:40:25.822Z,97.00
2018-01-02T21:42:54.008Z,96.80
2018-01-02T21:45:22.181Z,96.40
2018-01-02T21:47:50.374Z,96.40
2018-01-02T21:50:18.512Z,97.00
2018-01-02T21:52:46.664Z,96.20
2018-01-02T21:55:14.813Z,96.00
2018-01-02T21:57:43.144Z,96.20
2018-01-02T22:00:11.358Z,95.90
2018-01-02T22:02:39.534Z,96.10
2018-01-02T22:05:08.160Z,96.00
2018-01-02T22:10:12.028Z,95.40
2018-01-02T22:12:40.201Z,95.40
2018-01-02T22:15:08.418Z,95.40
2018-01-02T22:17:36.577Z,95.20
2018-01-02T22:20:04.749Z,95.10
2018-01-02T22:22:32.940Z,94.90
2018-01-02T22:25:01.853Z,94.40
2018-01-02T22:27:30.037Z,94.40
2018-01-02T22:29:58.453Z,94.00
2018-01-02T22:32:26.568Z,93.90
2018-01-02T22:34:54.684Z,93.60
2018-01-02T22:37:22.946Z,93.30
2018-01-02T22:39:51.089Z,93.30
2018-01-02T22:42:19.236Z,93.30
2018-01-02T22:44:47.402Z,93.00
2018-01-02T22:47:15.624Z,93.80
2018-01-02T22:49:43.809Z,92.90
2018-01-02T22:52:12.674Z,92.60
2018-01-02T22:54:41.392Z,92.80
2018-01-02T22:57:09.616Z,92.40
2018-01-02T22:59:37.799Z,92.30
2018-01-02T23:02:06.224Z,92.50
2018-01-02T23:04:34.385Z,93.00
2018-01-02T23:07:02.717Z,92.10
2018-01-02T23:09:30.905Z,92.10
2018-01-02T23:12:00.753Z,92.00
2018-01-02T23:14:28.909Z,91.80
2018-01-02T23:16:57.508Z,92.00
2018-01-02T23:19:25.814Z,91.90
2018-01-02T23:21:54.128Z,92.00
2018-01-02T23:24:23.379Z,93.20
2018-01-02T23:26:51.937Z,92.50
2018-01-02T23:29:20.085Z,92.90
2018-01-02T23:31:48.260Z,93.00
2018-01-02T23:34:16.409Z,93.30
2018-01-02T23:36:45.934Z,93.60
2018-01-02T23:39:14.121Z,94.10
2018-01-02T23:41:42.380Z,94.50
2018-01-02T23:44:11.105Z,94.60
2018-01-02T23:46:39.225Z,95.00
2018-01-02T23:49:07.425Z,95.00
2018-01-02T23:51:35.598Z,95.30
2018-01-02T23:54:04.561Z,96.20
2018-01-02T23:56:33.284Z,95.40
2018-01-02T23:59:01.725Z,95.50
